Time;durP1;ratioP1;P1;durP2;ratioP2;P2;SDS_P1;SDS_P2;PMS_P1;PMS_P2;Temp;Humidity;BMP_temperature;BMP_pressure;BME280_temperature;BME280_humidity;BME280_pressure;Samples;Min_cycle;Max_cycle;Signal;HPM_P1;HPM_P2
2023/03/19 00:02:17;;;;;;;11.35;3.20;;;12.70;99.90;;;;;;4951838;28;20478;-85
2023/03/19 00:04:43;;;;;;;9.27;2.90;;;12.70;99.90;;;;;;4951228;28;20440;-84
2023/03/19 00:07:09;;;;;;;8.30;3.00;;;12.60;99.90;;;;;;4952179;28;20032;-85
2023/03/19 00:09:35;;;;;;;6.65;2.83;;;12.60;99.90;;;;;;4951710;28;20027;-85
2023/03/19 00:12:01;;;;;;;11.02;3.15;;;12.60;99.90;;;;;;4951539;28;20389;-85
2023/03/19 00:14:26;;;;;;;7.55;3.35;;;12.50;99.90;;;;;;4951520;28;20063;-85
2023/03/19 00:16:52;;;;;;;8.98;3.08;;;12.60;99.90;;;;;;4950216;28;20126;-85
2023/03/19 00:19:17;;;;;;;5.72;3.05;;;12.90;99.90;;;;;;4951119;28;20028;-85
2023/03/19 00:21:43;;;;;;;7.13;3.00;;;12.60;99.90;;;;;;4951581;28;20129;-85
2023/03/19 00:24:09;;;;;;;8.05;3.03;;;12.50;99.90;;;;;;4951553;28;20497;-84
2023/03/19 00:26:35;;;;;;;9.05;3.67;;;12.40;99.90;;;;;;4936021;28;20056;-85
2023/03/19 00:29:02;;;;;;;6.68;3.28;;;12.40;99.90;;;;;;4932508;29;20448;-85
2023/03/19 00:31:29;;;;;;;9.18;3.53;;;12.40;99.90;;;;;;4932452;29;20386;-85
2023/03/19 00:33:58;;;;;;;9.77;3.50;;;12.30;99.90;;;;;;4931623;29;20070;-85
2023/03/19 00:36:27;;;;;;;10.55;3.55;;;12.30;99.90;;;;;;4932091;29;20486;-85
2023/03/19 00:38:53;;;;;;;8.20;3.08;;;12.30;99.90;;;;;;4932381;29;20153;-85
2023/03/19 00:41:19;;;;;;;12.10;3.00;;;12.30;99.90;;;;;;4932029;29;20111;-85
2023/03/19 00:43:45;;;;;;;8.93;3.25;;;12.30;99.90;;;;;;4932487;29;20028;-85
2023/03/19 00:46:11;;;;;;;9.05;3.40;;;12.20;99.90;;;;;;4948695;29;20202;-84
2023/03/19 00:48:37;;;;;;;10.13;2.88;;;12.20;99.90;;;;;;4950780;28;20028;-84
2023/03/19 00:51:07;;;;;;;9.65;3.08;;;12.40;99.90;;;;;;4951145;28;20023;-85
2023/03/19 00:53:38;;;;;;;8.18;3.15;;;12.30;99.90;;;;;;4949926;28;20023;-86
2023/03/19 00:56:04;;;;;;;9.75;3.40;;;12.30;99.90;;;;;;4950984;28;20429;-85
2023/03/19 00:58:30;;;;;;;7.07;3.40;;;12.30;99.90;;;;;;4954538;28;20032;-85
2023/03/19 01:00:55;;;;;;;7.18;2.90;;;12.30;99.90;;;;;;4954489;28;20085;-85
2023/03/19 01:03:21;;;;;;;7.47;2.78;;;12.30;99.90;;;;;;4954323;28;20440;-85
2023/03/19 01:05:48;;;;;;;6.25;3.20;;;12.30;99.90;;;;;;4953437;28;20405;-85
2023/03/19 01:08:18;;;;;;;6.97;2.92;;;12.30;99.90;;;;;;4954606;28;20027;-85
2023/03/19 01:10:44;;;;;;;7.57;2.88;;;12.30;99.90;;;;;;4954381;28;20409;-85
2023/03/19 01:13:10;;;;;;;9.35;2.65;;;12.40;99.90;;;;;;4954423;28;20387;-84
2023/03/19 01:15:41;;;;;;;9.75;3.28;;;12.30;99.90;;;;;;4954230;28;20088;-85
2023/03/19 01:18:07;;;;;;;6.53;2.70;;;12.30;99.90;;;;;;4954000;28;20067;-85
2023/03/19 01:20:38;;;;;;;7.43;2.88;;;12.30;99.90;;;;;;4954552;28;20066;-85
2023/03/19 01:23:04;;;;;;;9.23;2.75;;;12.30;99.90;;;;;;4954220;28;20031;-85
2023/03/19 01:25:30;;;;;;;11.00;3.28;;;12.30;99.90;;;;;;4948011;28;20048;-85
2023/03/19 01:27:56;;;;;;;11.38;2.83;;;12.40;99.90;;;;;;4935144;29;20431;-85
2023/03/19 01:30:22;;;;;;;8.38;3.05;;;12.40;99.90;;;;;;4934861;29;20103;-85
2023/03/19 01:32:48;;;;;;;9.43;2.95;;;12.40;99.90;;;;;;4934613;29;20591;-85
2023/03/19 01:35:14;;;;;;;6.20;2.83;;;12.40;99.90;;;;;;4934928;29;20494;-85
2023/03/19 01:37:40;;;;;;;9.40;3.00;;;12.40;99.90;;;;;;4934939;29;20036;-85
2023/03/19 01:40:08;;;;;;;6.35;2.25;;;12.40;99.90;;;;;;4934882;29;20027;-85
2023/03/19 01:42:33;;;;;;;10.80;2.65;;;12.50;99.90;;;;;;4934746;29;20031;-85
2023/03/19 01:45:01;;;;;;;9.18;3.03;;;12.40;99.90;;;;;;4941917;29;20050;-85
2023/03/19 01:47:39;;;;;;;6.57;2.55;;;12.40;99.90;;;;;;4953726;28;20042;-85
2023/03/19 01:50:10;;;;;;;9.13;2.67;;;12.50;99.90;;;;;;4953880;28;20027;-85
2023/03/19 01:52:36;;;;;;;9.98;3.15;;;12.50;99.90;;;;;;4952546;28;20558;-85
2023/03/19 01:55:03;;;;;;;8.65;2.75;;;12.50;99.90;;;;;;4953974;28;20059;-85
2023/03/19 01:57:31;;;;;;;9.98;2.83;;;12.50;99.90;;;;;;4953280;28;20027;-85
2023/03/19 02:00:00;;;;;;;9.13;2.85;;;12.60;99.90;;;;;;4953660;28;20062;-85
2023/03/19 02:02:30;;;;;;;5.53;2.53;;;12.50;99.90;;;;;;4953657;28;20394;-85
2023/03/19 02:05:24;;;;;;;7.78;2.60;;;12.60;99.90;;;;;;4953355;28;20400;-85
2023/03/19 02:07:56;;;;;;;12.57;2.90;;;12.60;99.90;;;;;;4951465;28;20034;-85
2023/03/19 02:10:23;;;;;;;10.25;2.63;;;12.60;99.90;;;;;;4953428;28;20107;-85
2023/03/19 02:12:49;;;;;;;5.65;2.67;;;12.50;99.90;;;;;;4953502;28;20031;-86
2023/03/19 02:15:15;;;;;;;8.43;2.55;;;12.50;99.90;;;;;;4953256;28;20236;-85
2023/03/19 02:17:41;;;;;;;9.57;3.00;;;12.40;99.90;;;;;;4953574;28;20030;-85
2023/03/19 02:20:31;;;;;;;7.55;2.63;;;12.30;99.90;;;;;;4953670;28;20040;-85
2023/03/19 02:23:08;;;;;;;9.70;2.80;;;12.30;99.90;;;;;;4953675;28;20038;-84
2023/03/19 02:25:46;;;;;;;7.30;2.63;;;12.30;99.90;;;;;;4946586;28;20054;-85
2023/03/19 02:28:15;;;;;;;9.32;2.92;;;12.30;99.90;;;;;;4934113;29;20107;-85
2023/03/19 02:30:42;;;;;;;7.85;3.00;;;12.40;99.90;;;;;;4933828;29;20398;-85
2023/03/19 02:33:13;;;;;;;7.18;2.63;;;12.30;99.90;;;;;;4933920;29;20097;-85
2023/03/19 02:35:40;;;;;;;7.03;2.50;;;12.20;99.90;;;;;;4934377;29;20523;-85
2023/03/19 02:38:06;;;;;;;9.38;2.80;;;12.30;99.90;;;;;;4934084;29;20016;-85
2023/03/19 02:40:40;;;;;;;9.55;3.83;;;12.30;99.90;;;;;;4933990;29;20081;-85
2023/03/19 02:43:06;;;;;;;8.23;2.83;;;12.40;99.90;;;;;;4933791;29;20090;-85
2023/03/19 02:45:31;;;;;;;8.30;3.20;;;12.30;99.90;;;;;;4944694;29;20039;-85
2023/03/19 02:47:58;;;;;;;8.88;3.00;;;12.30;99.90;;;;;;4953593;28;20023;-85
2023/03/19 02:50:24;;;;;;;12.60;2.90;;;12.30;99.90;;;;;;4952978;28;20455;-85
2023/03/19 02:52:50;;;;;;;7.35;2.50;;;12.30;99.90;;;;;;4952962;28;20059;-85
2023/03/19 02:55:17;;;;;;;7.20;2.80;;;12.30;99.90;;;;;;4952788;28;20027;-86
2023/03/19 02:57:43;;;;;;;9.23;3.10;;;12.30;99.90;;;;;;4952649;28;20031;-84
2023/03/19 03:00:10;;;;;;;8.52;2.90;;;12.20;99.90;;;;;;4952702;28;20031;-85
2023/03/19 03:02:37;;;;;;;8.38;2.63;;;12.30;99.90;;;;;;4953124;28;20026;-85
2023/03/19 03:05:03;;;;;;;7.38;2.72;;;12.10;99.90;;;;;;4952106;28;20038;-85
2023/03/19 03:07:29;;;;;;;9.07;3.13;;;12.20;99.90;;;;;;4953047;28;20043;-85
2023/03/19 03:09:55;;;;;;;8.30;2.75;;;12.10;99.90;;;;;;4952732;28;20033;-85
2023/03/19 03:12:21;;;;;;;9.88;3.10;;;12.10;99.90;;;;;;4952147;28;20039;-86
2023/03/19 03:14:47;;;;;;;7.78;3.28;;;12.10;99.90;;;;;;4952560;28;20020;-85
2023/03/19 03:17:13;;;;;;;8.88;2.88;;;12.10;99.90;;;;;;4952566;28;20089;-85
2023/03/19 03:19:38;;;;;;;9.98;2.72;;;12.20;99.90;;;;;;4952090;28;20051;-85
2023/03/19 03:22:04;;;;;;;8.40;2.55;;;12.30;99.90;;;;;;4952432;28;20123;-85
2023/03/19 03:24:30;;;;;;;10.85;2.80;;;12.30;99.90;;;;;;4952150;28;20023;-85
2023/03/19 03:26:56;;;;;;;8.77;2.67;;;12.30;99.90;;;;;;4934992;28;20058;-85
2023/03/19 03:29:22;;;;;;;7.45;2.78;;;12.30;99.90;;;;;;4933673;29;20067;-85
2023/03/19 03:31:47;;;;;;;7.15;2.88;;;12.30;99.90;;;;;;4933221;29;20032;-85
2023/03/19 03:34:13;;;;;;;7.47;2.25;;;12.30;99.90;;;;;;4932972;29;20020;-85
2023/03/19 03:36:38;;;;;;;9.93;3.00;;;12.30;99.90;;;;;;4933183;29;20028;-85
2023/03/19 03:39:04;;;;;;;8.68;2.72;;;12.20;99.90;;;;;;4932981;29;20112;-86
2023/03/19 03:41:30;;;;;;;7.68;2.80;;;12.30;99.90;;;;;;4933127;29;20036;-85
2023/03/19 03:43:56;;;;;;;6.80;2.63;;;12.20;99.90;;;;;;4933054;29;20055;-85
2023/03/19 03:46:23;;;;;;;8.05;2.20;;;12.30;99.90;;;;;;4950807;29;20118;-85
2023/03/19 03:48:50;;;;;;;6.25;2.83;;;12.10;99.90;;;;;;4952208;28;20551;-85
2023/03/19 03:51:16;;;;;;;8.40;2.83;;;12.10;99.90;;;;;;4952442;28;20065;-85
2023/03/19 03:53:42;;;;;;;7.03;2.38;;;12.10;99.90;;;;;;4951520;28;20399;-85
2023/03/19 03:56:07;;;;;;;7.78;2.70;;;12.10;99.90;;;;;;4951930;28;20039;-85
2023/03/19 03:58:33;;;;;;;6.13;2.50;;;12.10;99.90;;;;;;4950600;28;20445;-85
2023/03/19 04:00:59;;;;;;;7.70;2.55;;;12.10;99.90;;;;;;4951818;28;20389;-85
2023/03/19 04:03:25;;;;;;;7.35;2.80;;;12.10;99.90;;;;;;4951721;28;20051;-85
2023/03/19 04:05:51;;;;;;;7.28;2.83;;;12.10;99.90;;;;;;4951611;28;20043;-85
2023/03/19 04:08:17;;;;;;;8.07;2.70;;;12.20;99.90;;;;;;4950539;28;20050;-85
2023/03/19 04:10:43;;;;;;;8.57;2.45;;;12.20;99.90;;;;;;4951640;28;20028;-86
2023/03/19 04:13:10;;;;;;;9.35;2.50;;;12.20;99.90;;;;;;4951855;28;20396;-85
2023/03/19 04:15:36;;;;;;;6.95;2.28;;;12.20;99.90;;;;;;4951609;28;20031;-85
2023/03/19 04:18:02;;;;;;;7.28;2.70;;;12.10;99.90;;;;;;4951678;28;20030;-85
2023/03/19 04:20:27;;;;;;;5.93;2.17;;;12.20;99.90;;;;;;4951820;28;20051;-85
2023/03/19 04:22:53;;;;;;;9.00;2.95;;;12.20;99.90;;;;;;4951934;28;20086;-85
2023/03/19 04:25:19;;;;;;;7.38;2.58;;;12.10;99.90;;;;;;4946456;28;20052;-85
2023/03/19 04:27:45;;;;;;;5.95;2.30;;;12.10;99.90;;;;;;4932426;29;20028;-85
2023/03/19 04:30:11;;;;;;;7.20;2.60;;;12.20;99.90;;;;;;4932087;29;20024;-84
2023/03/19 04:32:37;;;;;;;8.25;2.58;;;12.20;99.90;;;;;;4932512;29;20557;-85
2023/03/19 04:35:03;;;;;;;8.07;2.65;;;12.20;99.90;;;;;;4932722;29;20107;-86
2023/03/19 04:37:29;;;;;;;10.05;2.45;;;12.20;99.90;;;;;;4932083;29;20282;-86
2023/03/19 04:39:55;;;;;;;9.23;2.85;;;12.20;99.90;;;;;;4931534;29;20363;-86
2023/03/19 04:42:21;;;;;;;4.82;2.45;;;12.20;99.90;;;;;;4932286;29;20020;-86
2023/03/19 04:44:47;;;;;;;4.47;2.47;;;12.20;99.90;;;;;;4937345;29;20028;-86
2023/03/19 04:47:13;;;;;;;7.22;2.45;;;12.20;99.90;;;;;;4949402;29;20114;-86
2023/03/19 04:49:38;;;;;;;5.15;2.70;;;12.20;99.90;;;;;;4951053;28;20023;-85
2023/03/19 04:52:05;;;;;;;6.18;2.78;;;12.20;99.90;;;;;;4950889;28;20270;-86
2023/03/19 04:54:31;;;;;;;6.30;2.70;;;12.10;99.90;;;;;;4950423;28;20028;-86
2023/03/19 04:56:56;;;;;;;5.18;2.60;;;12.10;99.90;;;;;;4951049;28;20500;-86
2023/03/19 04:59:22;;;;;;;5.13;2.53;;;12.10;99.90;;;;;;4951174;28;20028;-86
2023/03/19 05:01:48;;;;;;;4.82;2.80;;;12.10;99.90;;;;;;4951452;28;20027;-85
2023/03/19 05:04:13;;;;;;;8.20;2.67;;;12.10;99.90;;;;;;4950900;28;20027;-85
2023/03/19 05:06:39;;;;;;;10.43;3.05;;;12.20;99.90;;;;;;4951041;28;20043;-86
2023/03/19 05:09:06;;;;;;;8.25;2.85;;;12.10;99.90;;;;;;4950451;28;20387;-86
2023/03/19 05:11:32;;;;;;;7.70;2.85;;;12.10;99.90;;;;;;4951010;28;20486;-85
2023/03/19 05:13:58;;;;;;;7.93;3.05;;;12.20;99.90;;;;;;4950365;28;20249;-86
2023/03/19 05:16:24;;;;;;;6.15;3.08;;;12.20;99.90;;;;;;4950815;28;20031;-86
2023/03/19 05:18:50;;;;;;;6.93;2.90;;;12.10;99.90;;;;;;4951304;28;20366;-87
2023/03/19 05:21:16;;;;;;;6.38;2.50;;;12.10;99.90;;;;;;4950856;28;20093;-87
2023/03/19 05:23:42;;;;;;;8.70;3.17;;;12.10;99.90;;;;;;4950591;28;20427;-86
2023/03/19 05:26:08;;;;;;;7.18;3.22;;;12.10;99.90;;;;;;4940285;28;20062;-86
2023/03/19 05:28:34;;;;;;;5.97;2.75;;;12.10;99.90;;;;;;4931704;29;20489;-86
2023/03/19 05:31:00;;;;;;;9.88;3.08;;;12.00;99.90;;;;;;4931645;29;20039;-87
2023/03/19 05:33:25;;;;;;;6.38;3.10;;;12.00;99.90;;;;;;4931669;29;20024;-86
2023/03/19 05:35:52;;;;;;;5.95;3.15;;;12.00;99.90;;;;;;4931974;29;20036;-86
2023/03/19 05:38:17;;;;;;;7.93;3.15;;;12.00;99.90;;;;;;4929921;29;20016;-86
2023/03/19 05:40:43;;;;;;;8.95;3.63;;;12.00;99.90;;;;;;4931589;29;20031;-86
2023/03/19 05:43:10;;;;;;;7.13;3.25;;;11.90;99.90;;;;;;4933018;29;20573;-87
2023/03/19 05:45:36;;;;;;;8.50;3.45;;;11.90;99.90;;;;;;4946846;29;20134;-86
2023/03/19 05:48:03;;;;;;;8.82;3.58;;;11.90;99.90;;;;;;4954034;28;20042;-86
2023/03/19 05:50:30;;;;;;;6.72;3.90;;;11.90;99.90;;;;;;4953953;28;20460;-86
2023/03/19 05:52:56;;;;;;;6.43;3.50;;;11.80;99.90;;;;;;4953383;28;20024;-86
2023/03/19 05:55:22;;;;;;;7.45;3.40;;;11.80;99.90;;;;;;4953906;28;20031;-86
2023/03/19 05:57:48;;;;;;;8.80;3.90;;;11.80;99.90;;;;;;4954081;28;20035;-86
2023/03/19 06:00:14;;;;;;;8.55;4.00;;;11.80;99.90;;;;;;4953704;28;20114;-86
2023/03/19 06:02:41;;;;;;;8.15;3.60;;;11.80;99.90;;;;;;4953498;28;20480;-86
2023/03/19 06:05:08;;;;;;;7.75;4.20;;;11.80;99.90;;;;;;4953865;28;20111;-86
2023/03/19 06:07:34;;;;;;;6.72;4.10;;;11.70;99.90;;;;;;4953385;28;20102;-85
2023/03/19 06:09:59;;;;;;;5.50;3.72;;;11.80;99.90;;;;;;4953649;28;20537;-86
2023/03/19 06:12:25;;;;;;;12.60;4.47;;;11.70;99.90;;;;;;4953500;28;20100;-86
2023/03/19 06:14:51;;;;;;;7.32;4.05;;;11.80;99.90;;;;;;4953579;28;20766;-86
2023/03/19 06:17:17;;;;;;;8.65;4.63;;;11.80;99.90;;;;;;4953864;28;20057;-86
2023/03/19 06:19:42;;;;;;;7.38;3.90;;;11.80;99.90;;;;;;4953421;28;20070;-86
2023/03/19 06:22:08;;;;;;;10.57;3.95;;;11.80;99.90;;;;;;4953504;28;20035;-86
2023/03/19 06:24:34;;;;;;;5.70;3.90;;;11.80;99.90;;;;;;4953430;28;20031;-86
2023/03/19 06:27:00;;;;;;;6.72;4.18;;;11.80;99.90;;;;;;4953150;28;20096;-86
2023/03/19 06:29:26;;;;;;;7.93;4.25;;;11.90;99.90;;;;;;4953457;28;20023;-86
2023/03/19 06:31:51;;;;;;;9.43;3.95;;;11.90;99.90;;;;;;4953568;28;20066;-86
2023/03/19 06:34:17;;;;;;;9.02;4.32;;;11.80;99.90;;;;;;4953097;28;20027;-87
2023/03/19 06:36:43;;;;;;;6.88;3.72;;;11.80;99.90;;;;;;4952601;28;20027;-86
2023/03/19 06:39:09;;;;;;;8.88;3.88;;;11.80;99.90;;;;;;4953102;28;20501;-86
2023/03/19 06:41:36;;;;;;;8.20;3.55;;;11.90;99.90;;;;;;4953085;28;20027;-86
2023/03/19 06:44:02;;;;;;;6.78;3.53;;;11.90;99.90;;;;;;4953202;28;20031;-86
2023/03/19 06:46:27;;;;;;;6.13;3.53;;;12.00;99.90;;;;;;4953058;28;20047;-86
2023/03/19 06:48:53;;;;;;;6.35;3.30;;;12.00;99.90;;;;;;4953152;28;20038;-87
2023/03/19 06:51:18;;;;;;;6.43;3.40;;;11.90;99.90;;;;;;4952173;28;20032;-86
2023/03/19 06:53:44;;;;;;;6.68;3.95;;;12.00;99.90;;;;;;4966922;28;20063;-87
2023/03/19 06:56:10;;;;;;;6.80;3.33;;;11.90;99.90;;;;;;4952216;28;20054;-86
2023/03/19 06:58:35;;;;;;;5.50;3.65;;;12.00;99.90;;;;;;4952706;28;20110;-86
2023/03/19 07:01:01;;;;;;;8.68;3.40;;;12.00;99.90;;;;;;4953281;28;20481;-86
2023/03/19 07:03:27;;;;;;;4.85;3.10;;;12.00;99.90;;;;;;4953091;28;20027;-86
2023/03/19 07:05:53;;;;;;;10.50;3.58;;;12.00;99.90;;;;;;4951761;28;20112;-86
2023/03/19 07:08:18;;;;;;;6.65;3.40;;;12.00;99.90;;;;;;4952575;28;20551;-86
2023/03/19 07:10:44;;;;;;;6.10;3.50;;;12.10;99.90;;;;;;4952654;28;20049;-87
2023/03/19 07:13:10;;;;;;;5.65;2.80;;;12.10;99.90;;;;;;4952518;28;20023;-86
2023/03/19 07:15:36;;;;;;;4.82;2.90;;;12.00;99.90;;;;;;4952539;28;20027;-86
2023/03/19 07:18:01;;;;;;;8.48;3.67;;;12.00;99.90;;;;;;4952574;28;20456;-86
2023/03/19 07:20:27;;;;;;;8.50;3.55;;;11.90;99.90;;;;;;4952156;28;20023;-86
2023/03/19 07:22:53;;;;;;;9.45;4.10;;;11.90;99.90;;;;;;4952695;28;20035;-86
2023/03/19 07:25:20;;;;;;;7.85;3.70;;;11.90;99.90;;;;;;4947832;28;20054;-86
2023/03/19 07:27:45;;;;;;;8.20;3.50;;;11.90;99.90;;;;;;4933111;29;20020;-85
2023/03/19 07:30:12;;;;;;;8.48;3.63;;;11.90;99.90;;;;;;4933716;29;20039;-86
2023/03/19 07:32:39;;;;;;;8.25;3.53;;;11.90;99.90;;;;;;4944424;29;20051;-86
2023/03/19 07:35:07;;;;;;;7.60;3.65;;;11.80;99.90;;;;;;4953592;28;20035;-84
2023/03/19 07:37:33;;;;;;;7.07;3.60;;;11.90;99.90;;;;;;4955615;28;20039;-84
2023/03/19 07:39:58;;;;;;;9.43;3.80;;;11.90;99.90;;;;;;4952182;28;20595;-85
2023/03/19 07:42:24;;;;;;;11.13;4.22;;;12.00;99.90;;;;;;4951941;28;20035;-83
2023/03/19 07:44:50;;;;;;;5.25;3.42;;;12.00;99.90;;;;;;4952336;29;20043;-88
2023/03/19 07:47:16;;;;;;;6.78;3.88;;;12.10;99.90;;;;;;4966663;28;20132;-84
2023/03/19 07:49:41;;;;;;;8.00;3.83;;;12.10;99.90;;;;;;4952248;28;20035;-94
2023/03/19 07:52:07;;;;;;;6.18;3.88;;;12.10;99.90;;;;;;4952468;28;20383;-94
2023/03/19 07:54:33;;;;;;;7.25;4.00;;;12.00;99.90;;;;;;4952234;28;20031;-91
2023/03/19 07:56:59;;;;;;;8.95;4.60;;;12.00;99.90;;;;;;4951639;28;20058;-94
2023/03/19 07:59:25;;;;;;;7.43;4.35;;;12.00;99.90;;;;;;4951959;28;20035;-88
2023/03/19 08:01:50;;;;;;;10.45;3.80;;;12.00;99.90;;;;;;4950829;29;20077;-87
2023/03/19 08:04:16;;;;;;;7.93;3.95;;;12.10;99.90;;;;;;4951510;28;20050;-88
2023/03/19 08:06:42;;;;;;;7.07;3.97;;;12.10;99.90;;;;;;4952186;28;20482;-91
2023/03/19 08:09:08;;;;;;;6.82;3.75;;;12.10;99.90;;;;;;4952424;28;20031;-91
2023/03/19 08:11:34;;;;;;;6.63;3.88;;;12.20;99.90;;;;;;4952377;28;20023;-91
2023/03/19 08:14:00;;;;;;;9.02;4.60;;;12.20;99.90;;;;;;4952190;28;20409;-92
2023/03/19 08:16:26;;;;;;;6.22;3.65;;;12.20;99.90;;;;;;4951955;28;20019;-91
2023/03/19 08:18:52;;;;;;;6.97;3.70;;;12.20;99.90;;;;;;4951817;28;20098;-90
2023/03/19 08:21:17;;;;;;;7.10;3.50;;;12.30;99.90;;;;;;4952484;28;20035;-89
2023/03/19 08:23:43;;;;;;;8.20;3.47;;;12.30;99.90;;;;;;4951335;28;20031;-89
2023/03/19 08:26:09;;;;;;;6.50;3.42;;;12.40;99.90;;;;;;4951165;29;20057;-89
2023/03/19 08:28:36;;;;;;;7.18;3.50;;;12.40;99.90;;;;;;4951613;28;20496;-88
2023/03/19 08:31:12;;;;;;;6.72;3.45;;;12.50;99.90;;;;;;4949927;28;20031;-88
2023/03/19 08:33:38;;;;;;;6.80;3.42;;;12.60;99.90;;;;;;4951451;28;20462;-88
2023/03/19 08:36:09;;;;;;;5.72;3.53;;;12.60;99.90;;;;;;4950406;29;20041;-89
2023/03/19 08:38:35;;;;;;;5.85;3.33;;;12.70;99.90;;;;;;4951401;28;20473;-89
2023/03/19 08:41:03;;;;;;;4.78;3.20;;;12.70;99.90;;;;;;4951588;28;20024;-90
2023/03/19 08:43:30;;;;;;;8.00;3.97;;;12.80;99.90;;;;;;4951200;28;20084;-89
2023/03/19 08:45:55;;;;;;;6.75;3.17;;;12.90;99.90;;;;;;4950176;29;20031;-88
2023/03/19 08:48:21;;;;;;;6.93;3.22;;;12.90;99.90;;;;;;4951326;29;20043;-89
2023/03/19 08:50:56;;;;;;;7.65;3.33;;;13.00;99.90;;;;;;4950946;29;20038;-89
2023/03/19 08:53:22;;;;;;;7.07;3.35;;;13.10;99.90;;;;;;4950934;28;20027;-88
2023/03/19 08:55:57;;;;;;;7.68;3.45;;;12.90;99.90;;;;;;4950787;28;20104;-88
2023/03/19 08:58:23;;;;;;;7.13;3.30;;;13.00;99.90;;;;;;4932379;29;20405;-89
2023/03/19 09:00:49;;;;;;;8.40;3.15;;;13.20;99.90;;;;;;4937875;29;20526;-89
2023/03/19 09:03:16;;;;;;;6.40;3.30;;;13.20;99.90;;;;;;4950758;29;20114;-89
2023/03/19 09:05:42;;;;;;;5.22;2.92;;;13.30;99.90;;;;;;4950645;28;20511;-88
2023/03/19 09:08:08;;;;;;;4.22;2.90;;;13.40;99.90;;;;;;4951302;28;20031;-88
2023/03/19 09:10:34;;;;;;;4.80;3.13;;;13.40;99.90;;;;;;4950856;28;20685;-88
2023/03/19 09:13:00;;;;;;;7.45;3.58;;;13.80;99.90;;;;;;4950373;28;20315;-88
2023/03/19 09:15:26;;;;;;;6.13;3.17;;;14.00;99.90;;;;;;4950283;28;20024;-89
2023/03/19 09:17:52;;;;;;;6.72;3.30;;;14.30;99.90;;;;;;4952021;28;20390;-88
2023/03/19 09:20:17;;;;;;;4.72;2.72;;;14.30;99.90;;;;;;4953906;28;20077;-88
2023/03/19 09:22:43;;;;;;;3.50;2.70;;;14.50;99.90;;;;;;4954437;28;20035;-88
2023/03/19 09:25:10;;;;;;;5.95;3.53;;;14.60;99.90;;;;;;4953477;28;20253;-88
2023/03/19 09:27:35;;;;;;;5.13;3.08;;;14.30;99.90;;;;;;4954347;28;20481;-89
2023/03/19 09:30:01;;;;;;;6.60;3.20;;;14.40;99.90;;;;;;4953259;28;20027;-88
2023/03/19 09:32:28;;;;;;;4.25;2.97;;;14.90;99.90;;;;;;4954149;28;20054;-88
2023/03/19 09:34:53;;;;;;;4.07;2.35;;;15.50;99.90;;;;;;4952983;28;20509;-87
2023/03/19 09:37:19;;;;;;;4.97;2.55;;;15.30;99.90;;;;;;4954164;28;20066;-87
2023/03/19 09:39:45;;;;;;;4.90;2.50;;;14.70;99.90;;;;;;4953830;28;20031;-87
2023/03/19 09:42:19;;;;;;;4.90;2.50;;;14.50;99.90;;;;;;4934879;29;20173;-88
2023/03/19 09:44:45;;;;;;;5.28;2.40;;;14.70;99.90;;;;;;4943488;28;20454;-88
2023/03/19 09:47:30;;;;;;;4.13;2.15;;;15.20;99.90;;;;;;4953243;28;20160;-85
2023/03/19 09:50:31;;;;;;;5.43;2.58;;;20.90;99.90;;;;;;4953698;29;20031;-86
2023/03/19 09:53:27;;;;;;;5.72;2.40;;;17.60;99.90;;;;;;5032907;28;20033;-89
2023/03/19 09:55:54;;;;;;;4.53;2.30;;;16.50;99.90;;;;;;5032509;28;20037;-87
2023/03/19 09:58:23;;;;;;;3.92;2.10;;;16.00;99.90;;;;;;5032515;28;20519;-88
2023/03/19 10:00:51;;;;;;;3.53;2.25;;;15.70;99.90;;;;;;5031464;28;20037;-88
2023/03/19 10:03:50;;;;;;;4.63;2.30;;;15.40;99.90;;;;;;5032828;28;20053;-88
2023/03/19 10:06:26;;;;;;;3.67;2.28;;;15.70;99.90;;;;;;4980199;28;20045;-88
2023/03/19 10:09:18;;;;;;;3.65;2.08;;;15.50;99.90;;;;;;4993255;28;20264;-86
2023/03/19 10:12:12;;;;;;;4.05;2.17;;;15.20;99.90;;;;;;4984648;28;20054;-87
2023/03/19 10:14:53;;;;;;;2.90;2.05;;;15.50;99.90;;;;;;4973316;28;20540;-89
2023/03/19 10:17:26;;;;;;;3.13;2.33;;;15.60;99.90;;;;;;4985729;28;20545;-86
2023/03/19 10:19:58;;;;;;;4.40;2.28;;;16.00;99.90;;;;;;4978346;28;20457;-87
2023/03/19 10:22:30;;;;;;;3.40;2.20;;;15.90;99.90;;;;;;4984779;28;20041;-87
2023/03/19 10:24:57;;;;;;;2.85;2.13;;;15.70;99.90;;;;;;4979840;28;20402;-87
2023/03/19 10:27:27;;;;;;;4.43;2.25;;;15.50;99.90;;;;;;4989611;28;20627;-87
2023/03/19 10:29:53;;;;;;;4.00;1.90;;;15.70;99.90;;;;;;4913121;29;20038;-87
2023/03/19 10:32:40;;;;;;;3.45;1.98;;;15.90;99.90;;;;;;4913346;28;20115;-86
2023/03/19 10:35:37;;;;;;;3.67;1.95;;;16.10;99.90;;;;;;4931033;28;20501;-89
2023/03/19 10:38:25;;;;;;;2.70;1.80;;;15.80;99.90;;;;;;4944765;28;20039;-86
2023/03/19 10:41:23;;;;;;;3.83;2.10;;;16.30;99.90;;;;;;4903030;28;20471;-88
2023/03/19 10:44:01;;;;;;;3.42;1.90;;;16.50;99.90;;;;;;4939625;29;20130;-88
2023/03/19 10:46:26;;;;;;;3.63;1.80;;;16.80;99.90;;;;;;4953030;28;20035;-85
2023/03/19 10:48:53;;;;;;;3.95;2.00;;;16.60;99.90;;;;;;4953172;28;20038;-90
2023/03/19 10:51:26;;;;;;;5.18;2.15;;;16.90;99.90;;;;;;4952683;28;20039;-88
2023/03/19 10:53:55;;;;;;;1.80;1.40;;;17.30;99.90;;;;;;4953326;28;20042;-87
2023/03/19 10:56:24;;;;;;;3.38;1.95;;;17.30;99.90;;;;;;4951309;28;20027;-87
2023/03/19 10:59:05;;;;;;;3.38;1.80;;;17.40;99.90;;;;;;4952517;28;20051;-87
2023/03/19 11:01:37;;;;;;;3.30;1.77;;;17.80;99.90;;;;;;4953193;28;20031;-87
2023/03/19 11:04:13;;;;;;;3.50;1.67;;;17.50;99.90;;;;;;4953024;28;20023;-87
2023/03/19 11:06:39;;;;;;;1.92;1.55;;;17.30;99.90;;;;;;4951776;29;20040;-87
2023/03/19 11:09:08;;;;;;;2.95;1.65;;;17.40;99.90;;;;;;4951565;28;20062;-88
2023/03/19 11:11:52;;;;;;;3.45;1.45;;;17.70;99.90;;;;;;4933700;28;20082;-89
2023/03/19 11:14:27;;;;;;;2.50;1.88;;;17.80;99.90;;;;;;4961508;28;20493;-96
2023/03/19 11:16:57;;;;;;;3.13;1.40;;;17.70;99.90;;;;;;4957724;28;20031;-95
2023/03/19 11:19:28;;;;;;;2.25;1.40;;;17.20;99.90;;;;;;4959812;29;20039;-95
2023/03/19 11:22:37;;;;;;;3.20;1.70;;;17.20;99.90;;;;;;4953773;28;20039;-95
2023/03/19 11:25:18;;;;;;;3.55;1.60;;;17.30;99.90;;;;;;4952014;28;20039;-95
2023/03/19 11:27:56;;;;;;;3.78;1.70;;;17.30;99.90;;;;;;4953582;28;20039;-93
2023/03/19 11:30:21;;;;;;;3.53;1.83;;;17.40;99.90;;;;;;4954616;28;20023;-91
2023/03/19 11:33:04;;;;;;;3.33;1.70;;;17.60;99.90;;;;;;4954150;28;20500;-93
2023/03/19 11:36:12;;;;;;;3.10;1.90;;;17.20;99.90;;;;;;4952177;28;20055;-87
2023/03/19 11:38:51;;;;;;;3.30;1.88;;;17.30;99.90;;;;;;5052221;28;20098;-93
2023/03/19 11:41:26;;;;;;;2.33;1.30;;;17.60;99.90;;;;;;5050243;28;20044;-95
2023/03/19 11:44:00;;;;;;;2.63;1.40;;;17.60;99.90;;;;;;5052697;28;20025;-95
2023/03/19 11:46:53;;;;;;;3.50;1.50;;;17.50;99.90;;;;;;5051664;28;20482;-89
2023/03/19 11:49:37;;;;;;;3.15;1.65;;;18.90;99.90;;;;;;5051782;28;20113;-88
2023/03/19 11:52:19;;;;;;;2.45;1.25;;;21.50;99.90;;;;;;5050869;28;20108;-89
2023/03/19 11:55:15;;;;;;;2.35;1.40;;;21.70;99.90;;;;;;5050516;28;20107;-88
2023/03/19 11:58:28;;;;;;;1.45;1.30;;;24.10;99.90;;;;;;5051934;28;20128;-96
2023/03/19 12:00:56;;;;;;;3.22;1.48;;;23.10;99.90;;;;;;4972269;28;20025;-89
2023/03/19 12:03:40;;;;;;;2.25;1.60;;;21.50;99.90;;;;;;4975609;28;20105;-91
2023/03/19 12:06:20;;;;;;;4.00;1.60;;;20.50;99.90;;;;;;4972110;28;20117;-91
2023/03/19 12:08:55;;;;;;;1.85;1.50;;;18.50;99.90;;;;;;4971184;28;20034;-87
2023/03/19 12:11:39;;;;;;;2.80;1.67;;;18.10;99.90;;;;;;4970355;28;20122;-87
2023/03/19 12:14:37;;;;;;;1.80;1.45;;;17.70;99.90;;;;;;4877762;29;20423;-85
2023/03/19 12:17:29;;;;;;;2.22;1.63;;;17.80;99.90;;;;;;4875204;29;20112;-88
2023/03/19 12:20:03;;;;;;;2.35;1.88;;;17.50;99.90;;;;;;4892685;29;20309;-88
2023/03/19 12:22:47;;;;;;;2.00;1.77;;;17.30;99.90;;;;;;4892858;29;20154;-89
2023/03/19 12:25:23;;;;;;;2.72;1.30;;;17.20;99.90;;;;;;4892188;29;20059;-89
2023/03/19 12:28:12;;;;;;;2.53;1.60;;;17.10;99.90;;;;;;4893266;29;20032;-89
2023/03/19 12:30:56;;;;;;;1.60;1.40;;;16.80;99.90;;;;;;4900186;28;20531;-89
2023/03/19 12:33:55;;;;;;;1.40;1.20;;;17.00;99.90;;;;;;4950873;28;20402;-89
2023/03/19 12:36:28;;;;;;;3.42;1.40;;;16.90;99.90;;;;;;4951144;28;20036;-89
2023/03/19 12:39:05;;;;;;;1.45;1.17;;;17.00;99.90;;;;;;4951074;28;20062;-88
2023/03/19 12:41:35;;;;;;;2.80;1.55;;;16.90;99.90;;;;;;4951294;29;20503;-88
2023/03/19 12:44:27;;;;;;;1.58;1.25;;;16.70;99.90;;;;;;4951474;29;20564;-89
2023/03/19 12:47:04;;;;;;;3.15;1.33;;;17.00;99.90;;;;;;4950997;29;20030;-89
2023/03/19 12:49:29;;;;;;;1.98;1.38;;;17.00;99.90;;;;;;4951316;29;20093;-89
2023/03/19 12:52:34;;;;;;;2.90;1.40;;;17.10;99.90;;;;;;4950284;29;20023;-88
2023/03/19 12:55:14;;;;;;;1.60;1.13;;;17.10;99.90;;;;;;4964233;28;20441;-89
2023/03/19 12:57:57;;;;;;;2.15;1.38;;;17.00;99.90;;;;;;4950852;29;20036;-89
2023/03/19 13:00:34;;;;;;;1.52;1.42;;;17.10;99.90;;;;;;4950612;29;20030;-89